createdAt,value
2023-05-29T00:00:10.711Z,98571.88
2023-05-29T00:03:03.059Z,98574.26
2023-05-29T00:06:08.452Z,98572.67
2023-05-29T00:08:47.677Z,98572.66
2023-05-29T00:11:20.096Z,98572.61
2023-05-29T00:13:58.807Z,98573.38
2023-05-29T00:16:31.680Z,98575.90
2023-05-29T00:19:04.033Z,98577.16
2023-05-29T00:25:31.881Z,98578.52
2023-05-29T00:28:04.299Z,98579.80
2023-05-29T00:35:18.203Z,98578.02
2023-05-29T00:37:51.967Z,98571.03
2023-05-29T00:40:24.264Z,98576.48
2023-05-29T00:43:28.369Z,98573.94
2023-05-29T00:59:34.272Z,98565.73
2023-05-29T01:02:53.945Z,98560.40
2023-05-29T01:06:45.005Z,98561.40
2023-05-29T01:09:17.909Z,98562.10
2023-05-29T01:12:24.531Z,98557.95
2023-05-29T01:31:22.936Z,98551.71
2023-05-29T01:34:16.430Z,98557.20
2023-05-29T01:36:55.851Z,98555.34
2023-05-29T01:39:28.674Z,98551.34
2023-05-29T01:42:09.965Z,98550.09
2023-05-29T01:44:56.276Z,98549.93
2023-05-29T01:51:37.933Z,98551.29
2023-05-29T01:54:11.127Z,98547.14
2023-05-29T01:56:51.782Z,98543.81
2023-05-29T01:59:39.187Z,98544.67
2023-05-29T02:06:13.328Z,98540.67
2023-05-29T02:20:53.980Z,98532.29
2023-05-29T02:27:59.866Z,98534.48
2023-05-29T02:30:32.503Z,98536.06
2023-05-29T02:33:04.888Z,98532.38
2023-05-29T02:35:59.841Z,98532.90
2023-05-29T02:38:38.929Z,98531.98
2023-05-29T02:41:12.998Z,98532.41
2023-05-29T02:43:51.902Z,98532.46
2023-05-29T02:51:07.624Z,98532.13
2023-05-29T02:53:40.001Z,98531.84
2023-05-29T02:56:17.015Z,98527.23
2023-05-29T02:58:56.169Z,98532.30
2023-05-29T03:01:28.485Z,98531.69
2023-05-29T03:04:24.507Z,98532.49
2023-05-29T03:06:56.682Z,98525.09
2023-05-29T03:09:29.275Z,98525.04
2023-05-29T03:16:05.756Z,98514.37
2023-05-29T03:23:12.907Z,98519.29
2023-05-29T03:25:52.757Z,98524.91
2023-05-29T03:28:25.614Z,98523.19
2023-05-29T03:35:23.286Z,98518.27
2023-05-29T03:38:15.360Z,98519.40
2023-05-29T03:40:53.910Z,98516.48
2023-05-29T03:43:26.167Z,98521.77
2023-05-29T03:46:04.940Z,98523.60
2023-05-29T03:48:37.726Z,98523.08
2023-05-29T03:51:17.278Z,98519.15
2023-05-29T03:58:22.990Z,98525.97
2023-05-29T04:01:03.686Z,98525.95
2023-05-29T04:03:36.737Z,98527.40
2023-05-29T04:06:09.839Z,98529.36
2023-05-29T04:13:37.607Z,98532.17
2023-05-29T04:16:12.503Z,98534.82
2023-05-29T04:18:44.897Z,98539.19
2023-05-29T04:21:24.294Z,98537.77
2023-05-29T04:23:57.250Z,98539.66
2023-05-29T04:26:36.289Z,98545.00
2023-05-29T04:29:08.563Z,98545.67
2023-05-29T04:35:36.171Z,98553.02
2023-05-29T04:39:33.536Z,98554.85
2023-05-29T04:42:08.099Z,98554.45
2023-05-29T04:45:15.859Z,98555.40
2023-05-29T04:47:48.303Z,98561.12
2023-05-29T04:54:54.079Z,98554.95
2023-05-29T04:58:01.490Z,98553.41
2023-05-29T05:05:07.677Z,98557.11
2023-05-29T05:07:40.198Z,98557.33
2023-05-29T05:19:07.766Z,98559.42
2023-05-29T05:21:41.406Z,98561.79
2023-05-29T05:24:46.835Z,98561.34
2023-05-29T05:31:48.946Z,98553.61
2023-05-29T05:34:24.703Z,98559.87
2023-05-29T05:42:01.130Z,98564.09
2023-05-29T05:46:07.686Z,98562.71
2023-05-29T05:48:41.911Z,98562.96
2023-05-29T05:51:31.921Z,98559.30
2023-05-29T05:54:04.079Z,98557.12
2023-05-29T05:56:36.864Z,98555.88
2023-05-29T05:59:16.216Z,98556.56
2023-05-29T06:01:48.571Z,98560.66
2023-05-29T06:04:21.140Z,98562.33
2023-05-29T06:07:09.728Z,98553.30
2023-05-29T06:09:41.945Z,98554.05
2023-05-29T06:16:47.975Z,98548.61
2023-05-29T06:19:20.484Z,98549.29
2023-05-29T06:22:19.827Z,98543.92
2023-05-29T06:24:52.231Z,98543.67
2023-05-29T06:31:57.147Z,98538.44
2023-05-29T06:38:17.593Z,98546.46
2023-05-29T06:40:50.441Z,98554.06
2023-05-29T06:43:23.117Z,98552.08
2023-05-29T06:49:43.067Z,98551.14
2023-05-29T06:52:15.353Z,98548.51
2023-05-29T06:56:22.216Z,98548.97
2023-05-29T06:58:54.569Z,98549.93
2023-05-29T07:01:27.705Z,98546.09
2023-05-29T07:05:11.634Z,98544.85
2023-05-29T07:07:44.055Z,98544.67
2023-05-29T07:10:40.297Z,98544.86
2023-05-29T07:14:12.992Z,98545.95
2023-05-29T07:17:06.487Z,98541.44
2023-05-29T07:19:38.916Z,98541.13
2023-05-29T07:22:39.370Z,98539.65
2023-05-29T07:25:12.320Z,98530.53
2023-05-29T07:31:18.331Z,98534.06
2023-05-29T07:37:27.316Z,98515.36
2023-05-29T07:43:52.564Z,98508.73
2023-05-29T07:46:25.908Z,98509.66
2023-05-29T07:49:12.416Z,98509.23
2023-05-29T07:51:46.208Z,98507.52
2023-05-29T07:54:48.920Z,98503.61
2023-05-29T07:57:23.347Z,98506.82
2023-05-29T08:03:52.987Z,98494.30
2023-05-29T08:06:39.309Z,98478.00
2023-05-29T08:12:53.245Z,98486.41
2023-05-29T08:15:46.826Z,98484.84
2023-05-29T08:18:22.545Z,98471.85
2023-05-29T08:20:55.334Z,98462.11
2023-05-29T08:23:35.615Z,98464.77
2023-05-29T08:26:08.531Z,98459.17
2023-05-29T08:29:12.639Z,98447.40
2023-05-29T08:31:44.967Z,98446.37
2023-05-29T08:34:17.688Z,98432.89
2023-05-29T08:36:57.043Z,98432.66
2023-05-29T08:39:29.730Z,98438.61
2023-05-29T08:42:35.744Z,98431.18
2023-05-29T08:45:15.233Z,98421.02
2023-05-29T08:51:18.754Z,98406.16
2023-05-29T08:57:24.481Z,98418.41
2023-05-29T09:08:27.349Z,98389.21
2023-05-29T09:11:00.129Z,98370.73
2023-05-29T09:17:09.431Z,98374.64
2023-05-29T09:23:08.137Z,98375.27
2023-05-29T09:33:12.762Z,98351.74
2023-05-29T09:44:17.501Z,98327.37
2023-05-29T09:47:23.924Z,98326.96
2023-05-29T09:49:57.527Z,98321.60
2023-05-29T09:52:33.374Z,98313.07
2023-05-29T09:59:26.472Z,98310.29
2023-05-29T10:02:08.451Z,98312.09
2023-05-29T10:05:25.748Z,98309.02
2023-05-29T10:11:49.622Z,98297.27
2023-05-29T10:15:22.067Z,98293.66
2023-05-29T10:18:03.170Z,98284.80
2023-05-29T10:21:21.564Z,98299.84
2023-05-29T10:28:32.319Z,98297.79
2023-05-29T10:31:11.174Z,98300.27
2023-05-29T10:38:28.919Z,98285.59
2023-05-29T10:45:08.368Z,98280.30
2023-05-29T10:51:32.948Z,98273.98
2023-05-29T10:54:47.873Z,98278.24
2023-05-29T11:09:53.258Z,98261.77
2023-05-29T11:17:00.559Z,98246.15
2023-05-29T11:20:34.048Z,98248.66
2023-05-29T11:23:09.314Z,98234.27
2023-05-29T11:30:18.460Z,98218.11
2023-05-29T11:33:38.092Z,98222.45
2023-05-29T11:41:03.340Z,98212.49
2023-05-29T11:43:35.728Z,98212.95
2023-05-29T11:46:37.348Z,98208.23
2023-05-29T11:53:45.664Z,98203.96
2023-05-29T11:56:24.201Z,98205.73
2023-05-29T12:02:50.713Z,98205.05
2023-05-29T12:09:58.911Z,98187.14
2023-05-29T12:12:37.665Z,98175.35
2023-05-29T12:15:12.080Z,98164.04
2023-05-29T12:17:44.637Z,98168.71
2023-05-29T12:24:14.500Z,98160.38
2023-05-29T12:27:33.781Z,98164.84
2023-05-29T12:30:24.215Z,98168.02
2023-05-29T12:33:47.753Z,98174.23
2023-05-29T12:40:36.059Z,98156.52
2023-05-29T12:43:10.366Z,98157.93
2023-05-29T12:46:12.696Z,98144.38
2023-05-29T12:48:45.342Z,98144.77
2023-05-29T12:56:10.183Z,98139.42
2023-05-29T13:01:58.097Z,98119.80
2023-05-29T13:04:31.050Z,98114.08
2023-05-29T13:07:10.147Z,98112.73
2023-05-29T13:09:43.041Z,98108.19
2023-05-29T13:12:45.410Z,98098.92
2023-05-29T13:19:56.797Z,98076.95
2023-05-29T13:27:01.920Z,98056.72
2023-05-29T13:29:34.763Z,98054.67
2023-05-29T13:33:10.955Z,98057.13
2023-05-29T13:35:43.445Z,98048.59
2023-05-29T13:38:16.410Z,98051.56
2023-05-29T13:40:48.697Z,98061.23
2023-05-29T13:43:26.810Z,98058.48
2023-05-29T13:54:59.193Z,98059.33
2023-05-29T13:57:32.261Z,98061.44
2023-05-29T14:00:30.256Z,98059.90
2023-05-29T14:03:04.452Z,98060.14
2023-05-29T14:05:50.883Z,98061.66
2023-05-29T14:08:39.005Z,98062.66
2023-05-29T14:14:45.273Z,98058.64
2023-05-29T14:21:04.938Z,98054.04
2023-05-29T14:24:10.105Z,98049.77
2023-05-29T14:26:51.041Z,98036.61
2023-05-29T14:34:17.028Z,98058.50
2023-05-29T14:36:55.954Z,98051.80
2023-05-29T14:39:28.352Z,98052.38
2023-05-29T14:42:07.855Z,98049.89
2023-05-29T14:44:40.371Z,98052.13
2023-05-29T14:47:20.317Z,98042.22
2023-05-29T14:49:52.586Z,98045.75
2023-05-29T14:52:31.202Z,98040.98
2023-05-29T14:58:53.910Z,98040.27
2023-05-29T15:05:59.094Z,98029.02
2023-05-29T15:08:37.968Z,98034.89
2023-05-29T15:11:10.640Z,98043.09
2023-05-29T15:13:45.865Z,98037.67
2023-05-29T15:20:50.357Z,98046.79
2023-05-29T15:23:24.100Z,98041.17
2023-05-29T15:26:57.376Z,98042.58
2023-05-29T15:32:28.415Z,98045.41
2023-05-29T15:35:01.418Z,98045.27
2023-05-29T15:37:33.742Z,98053.52
2023-05-29T15:43:44.631Z,98056.23
2023-05-29T15:46:24.178Z,98058.29
2023-05-29T15:49:36.765Z,98057.70
2023-05-29T15:52:23.072Z,98064.29
2023-05-29T15:54:55.461Z,98064.52
2023-05-29T15:57:27.687Z,98070.39
2023-05-29T15:59:59.913Z,98067.41
2023-05-29T16:02:32.345Z,98069.87
2023-05-29T16:05:07.558Z,98076.48
2023-05-29T16:07:53.375Z,98081.00
2023-05-29T16:10:26.691Z,98082.42
2023-05-29T16:12:59.005Z,98076.50
2023-05-29T16:15:31.312Z,98075.54
2023-05-29T16:18:03.946Z,98071.05
2023-05-29T16:20:36.810Z,98076.84
2023-05-29T16:23:11.465Z,98078.84
2023-05-29T16:25:46.204Z,98081.18
2023-05-29T16:28:18.869Z,98083.84
2023-05-29T16:30:54.394Z,98086.89
2023-05-29T16:33:37.852Z,98108.34
2023-05-29T16:36:11.911Z,98121.02
2023-05-29T16:38:50.377Z,98117.33
2023-05-29T16:41:23.151Z,98119.17
2023-05-29T16:43:55.399Z,98118.39
2023-05-29T16:46:35.327Z,98113.72
2023-05-29T16:49:08.339Z,98120.78
2023-05-29T16:51:40.537Z,98121.38
2023-05-29T16:54:13.133Z,98121.48
2023-05-29T16:56:45.295Z,98125.73
2023-05-29T16:59:19.680Z,98130.85
2023-05-29T17:01:52.018Z,98134.58
2023-05-29T17:04:24.434Z,98141.08
2023-05-29T17:06:56.827Z,98157.42
2023-05-29T17:09:31.922Z,98164.94
2023-05-29T17:12:04.338Z,98170.20
2023-05-29T17:14:36.601Z,98174.48
2023-05-29T17:17:09.840Z,98174.85
2023-05-29T17:19:42.218Z,98179.74
2023-05-29T17:22:14.536Z,98186.10
2023-05-29T17:24:46.811Z,98199.63
2023-05-29T17:27:19.156Z,98210.46
2023-05-29T17:29:51.370Z,98216.92
2023-05-29T17:32:23.670Z,98224.95
2023-05-29T17:34:55.869Z,98231.56
2023-05-29T17:37:28.887Z,98237.69
2023-05-29T17:40:02.334Z,98235.64
2023-05-29T17:42:34.924Z,98237.05
2023-05-29T17:45:09.571Z,98241.11
2023-05-29T17:47:46.138Z,98247.73
2023-05-29T17:50:18.440Z,98249.92
2023-05-29T17:52:50.660Z,98258.48
2023-05-29T17:55:23.261Z,98262.05
2023-05-29T17:57:56.673Z,98268.73
2023-05-29T18:00:29.252Z,98276.06
2023-05-29T18:03:02.686Z,98281.35
2023-05-29T18:05:36.186Z,98291.89
2023-05-29T18:08:08.520Z,98300.46
2023-05-29T18:10:40.816Z,98303.37
2023-05-29T18:13:13.230Z,98307.12
2023-05-29T18:15:45.710Z,98308.34
2023-05-29T18:18:20.010Z,98313.92
2023-05-29T18:20:53.773Z,98321.96
2023-05-29T18:23:26.059Z,98327.16
2023-05-29T18:25:58.696Z,98327.41
2023-05-29T18:28:31.426Z,98333.79
2023-05-29T18:31:03.766Z,98343.52
2023-05-29T18:33:36.021Z,98351.71
2023-05-29T18:36:08.934Z,98361.29
2023-05-29T18:38:42.256Z,98368.39
2023-05-29T18:41:14.556Z,98374.50
2023-05-29T18:43:47.108Z,98379.57
2023-05-29T18:46:22.422Z,98396.24
2023-05-29T18:48:54.891Z,98395.39
2023-05-29T18:51:27.538Z,98400.50
2023-05-29T18:54:00.532Z,98400.91
2023-05-29T18:56:32.921Z,98411.09
2023-05-29T18:59:05.181Z,98416.45
2023-05-29T19:01:39.969Z,98421.35
2023-05-29T19:04:15.175Z,98424.15
2023-05-29T19:06:47.551Z,98428.48
2023-05-29T19:09:19.949Z,98440.04
2023-05-29T19:11:52.198Z,98449.51
2023-05-29T19:14:24.404Z,98456.58
2023-05-29T19:16:56.714Z,98466.12
2023-05-29T19:19:29.030Z,98472.41
2023-05-29T19:29:08.318Z,98493.96
2023-05-29T19:31:40.927Z,98496.38
2023-05-29T19:37:57.016Z,98504.15
2023-05-29T19:44:16.240Z,98522.44
2023-05-29T19:51:13.749Z,98535.00
2023-05-29T20:04:28.924Z,98553.94
2023-05-29T20:07:34.300Z,98556.32
2023-05-29T20:18:54.790Z,98553.60
2023-05-29T20:21:34.506Z,98551.48
2023-05-29T20:24:08.353Z,98562.04
2023-05-29T20:26:41.584Z,98567.00
2023-05-29T20:29:20.439Z,98566.83
2023-05-29T20:32:03.958Z,98566.11
2023-05-29T20:34:42.896Z,98570.30
2023-05-29T20:37:15.559Z,98569.48
2023-05-29T20:43:41.888Z,98569.04
2023-05-29T20:46:16.715Z,98567.09
2023-05-29T20:48:55.529Z,98566.22
2023-05-29T20:51:28.123Z,98562.68
2023-05-29T20:54:06.767Z,98561.69
2023-05-29T20:56:40.787Z,98564.05
2023-05-29T20:59:20.946Z,98559.71
2023-05-29T21:01:53.755Z,98564.20
2023-05-29T21:08:58.651Z,98563.57
2023-05-29T21:11:44.808Z,98561.97
2023-05-29T21:14:17.084Z,98560.33
2023-05-29T21:16:49.317Z,98559.39
2023-05-29T21:19:28.559Z,98556.98
2023-05-29T21:22:02.249Z,98553.91
2023-05-29T21:24:41.710Z,98555.45
2023-05-29T21:27:13.952Z,98552.41
2023-05-29T21:29:52.777Z,98550.77
2023-05-29T21:32:25.183Z,98548.29
2023-05-29T21:34:58.632Z,98550.42
2023-05-29T21:42:03.456Z,98552.04
2023-05-29T21:44:35.983Z,98552.85
2023-05-29T21:47:14.885Z,98547.22
2023-05-29T21:49:47.138Z,98543.11
2023-05-29T21:52:20.295Z,98543.67
2023-05-29T21:54:52.471Z,98545.72
2023-05-29T21:57:44.743Z,98544.55
2023-05-29T22:00:18.531Z,98548.50
2023-05-29T22:02:51.080Z,98543.94
2023-05-29T22:08:56.756Z,98545.61
2023-05-29T22:11:30.054Z,98544.90
2023-05-29T22:14:02.309Z,98541.63
2023-05-29T22:16:40.981Z,98542.58
2023-05-29T22:23:45.680Z,98546.51
2023-05-29T22:26:30.730Z,98543.12
2023-05-29T22:29:47.999Z,98550.29
2023-05-29T22:32:20.924Z,98546.65
2023-05-29T22:34:59.994Z,98550.34
2023-05-29T22:42:04.854Z,98549.38
2023-05-29T22:44:43.602Z,98548.54
2023-05-29T22:47:16.873Z,98552.89
2023-05-29T22:49:55.631Z,98550.29
2023-05-29T22:52:28.713Z,98554.05
2023-05-29T22:55:25.808Z,98552.73
2023-05-29T22:57:58.417Z,98551.25
2023-05-29T23:05:12.367Z,98543.10
2023-05-29T23:07:44.590Z,98542.19
2023-05-29T23:18:30.785Z,98542.36
2023-05-29T23:21:03.023Z,98537.61
2023-05-29T23:23:35.229Z,98544.05
2023-05-29T23:26:07.455Z,98545.44
2023-05-29T23:32:44.922Z,98549.80
2023-05-29T23:35:17.311Z,98546.81
2023-05-29T23:37:52.591Z,98549.04
2023-05-29T23:41:42.983Z,98552.60
2023-05-29T23:44:21.709Z,98545.66
2023-05-29T23:46:53.946Z,98545.83
2023-05-29T23:49:33.738Z,98543.61
2023-05-29T23:52:06.626Z,98536.67
2023-05-29T23:54:45.629Z,98536.21
2023-05-29T23:57:18.346Z,98537.68
2023-05-29T23:59:56.748Z,98534.95
